createdAt,value
2022-10-01T06:38:34.287Z,13.10
2022-10-01T06:41:36.138Z,13.00
2022-10-01T06:44:37.830Z,12.97
2022-10-01T06:47:42.349Z,12.89
2022-10-01T06:50:45.582Z,12.27
2022-10-01T06:53:47.087Z,12.15
2022-10-01T06:56:48.662Z,12.33
2022-10-01T06:59:50.380Z,12.41
2022-10-01T07:02:52.067Z,12.57
2022-10-01T07:05:53.695Z,12.69
2022-10-01T07:08:55.469Z,12.75
2022-10-01T07:11:57.448Z,12.79
2022-10-01T07:14:58.969Z,12.80
2022-10-01T07:18:00.582Z,12.81
2022-10-01T07:21:02.080Z,12.82
2022-10-01T07:24:03.904Z,12.81
2022-10-01T07:27:07.545Z,12.82
2022-10-01T07:30:09.712Z,12.82
2022-10-01T07:33:11.225Z,12.88
2022-10-01T07:36:13.369Z,12.90
2022-10-01T07:39:14.848Z,12.87
2022-10-01T07:42:16.356Z,12.86
2022-10-01T07:45:17.801Z,12.87
2022-10-01T07:48:19.334Z,12.85
2022-10-01T07:51:21.009Z,12.85
2022-10-01T07:54:22.844Z,12.88
2022-10-01T07:57:24.272Z,12.89
2022-10-01T08:00:26.720Z,12.90
2022-10-01T08:03:31.075Z,12.92
2022-10-01T08:06:32.601Z,12.90
2022-10-01T08:09:34.665Z,12.92
2022-10-01T08:12:36.164Z,12.93
2022-10-01T08:15:37.663Z,12.94
2022-10-01T08:18:42.381Z,12.97
2022-10-01T08:21:43.884Z,12.97
2022-10-01T08:24:45.439Z,12.98
2022-10-01T08:27:48.277Z,13.03
2022-10-01T08:30:49.779Z,13.14
2022-10-01T08:33:52.083Z,13.15
2022-10-01T08:41:04.714Z,13.13
2022-10-01T08:44:07.503Z,13.15
2022-10-01T08:47:52.537Z,13.23
2022-10-01T08:51:04.881Z,13.57
2022-10-01T08:54:28.483Z,13.76
2022-10-01T08:57:34.899Z,13.82
2022-10-01T09:00:40.216Z,13.82
2022-10-01T09:03:49.212Z,13.79
2022-10-01T09:07:10.328Z,13.75
2022-10-01T09:10:32.791Z,13.73
2022-10-01T09:13:57.554Z,13.70
2022-10-01T09:17:19.234Z,13.72
2022-10-01T09:20:28.364Z,13.71
2022-10-01T09:23:32.045Z,13.67
2022-10-01T09:26:36.489Z,13.70
2022-10-01T09:30:01.559Z,13.77
2022-10-01T09:33:12.813Z,13.82
2022-10-01T09:36:30.390Z,13.79
2022-10-01T09:39:57.185Z,13.74
2022-10-01T09:43:01.574Z,13.72
2022-10-01T09:46:07.122Z,13.70
2022-10-01T09:49:20.067Z,13.69
2022-10-01T09:52:32.392Z,13.73
2022-10-01T09:55:40.999Z,13.71
2022-10-01T09:58:47.816Z,13.69
2022-10-01T10:02:01.059Z,13.72
2022-10-01T10:05:05.897Z,13.74
2022-10-01T10:08:20.083Z,13.73
2022-10-01T10:11:24.888Z,13.72
2022-10-01T10:14:36.207Z,13.71
2022-10-01T10:17:43.141Z,13.79
2022-10-01T10:20:45.537Z,13.82
2022-10-01T10:23:56.600Z,13.99
2022-10-01T10:27:00.353Z,14.11
2022-10-01T10:30:16.158Z,14.25
2022-10-01T10:33:20.781Z,14.26
2022-10-01T10:36:29.054Z,14.22
2022-10-01T10:39:40.625Z,14.24
2022-10-01T10:42:48.446Z,14.30
2022-10-01T10:45:56.398Z,14.34
2022-10-01T10:49:24.753Z,14.41
2022-10-01T10:52:36.400Z,14.48
2022-10-01T10:55:39.166Z,14.50
2022-10-01T10:58:42.519Z,14.50
2022-10-01T11:01:46.089Z,14.52
2022-10-01T11:04:47.712Z,14.56
2022-10-01T11:07:54.358Z,14.63
2022-10-01T11:11:25.369Z,14.78
2022-10-01T11:14:26.837Z,14.73
2022-10-01T11:17:43.469Z,14.70
2022-10-01T11:20:54.262Z,14.69
2022-10-01T11:24:21.086Z,14.63
2022-10-01T11:28:04.790Z,14.58
2022-10-01T11:31:28.047Z,14.52
2022-10-01T11:34:50.406Z,14.53
2022-10-01T11:38:10.622Z,14.56
2022-10-01T11:41:34.868Z,14.68
2022-10-01T11:45:02.994Z,14.73
2022-10-01T11:48:12.612Z,14.78
2022-10-01T11:51:19.443Z,14.83
2022-10-01T11:54:24.457Z,14.79
2022-10-01T11:57:45.431Z,14.73
2022-10-01T12:00:58.664Z,14.69
2022-10-01T12:04:17.312Z,14.65
2022-10-01T12:07:39.060Z,14.83
2022-10-01T12:10:47.094Z,14.80
2022-10-01T12:13:57.192Z,14.76
2022-10-01T12:17:09.145Z,14.72
2022-10-01T12:20:26.033Z,14.70
2022-10-01T12:23:32.103Z,14.70
2022-10-01T12:26:58.227Z,14.73
2022-10-01T12:30:09.051Z,14.73
2022-10-01T12:33:23.037Z,14.71
2022-10-01T12:36:40.718Z,14.67
2022-10-01T12:40:06.778Z,14.70
2022-10-01T12:43:29.507Z,14.65
2022-10-01T12:46:59.435Z,14.64
2022-10-01T12:50:12.911Z,14.64
2022-10-01T12:53:28.033Z,14.61
2022-10-01T12:56:38.161Z,14.62
2022-10-01T13:00:09.689Z,14.62
2022-10-01T13:03:11.132Z,14.73
2022-10-01T13:06:23.904Z,14.89
2022-10-01T13:09:51.356Z,15.11
2022-10-01T13:13:14.891Z,15.28
2022-10-01T13:17:07.381Z,15.37
2022-10-01T13:20:23.830Z,15.36
2022-10-01T13:23:39.335Z,15.43
2022-10-01T13:26:53.847Z,15.41
2022-10-01T13:30:21.262Z,15.37
2022-10-01T13:33:26.238Z,15.43
2022-10-01T13:36:30.483Z,15.41
2022-10-01T13:39:38.882Z,15.31
2022-10-01T13:43:26.806Z,15.25
2022-10-01T13:46:51.446Z,15.21
2022-10-01T13:49:56.560Z,15.18
2022-10-01T13:53:08.453Z,15.19
2022-10-01T13:56:14.328Z,15.17
2022-10-01T13:59:34.171Z,15.15
2022-10-01T14:02:39.431Z,15.16
2022-10-01T14:05:43.084Z,15.16
2022-10-01T14:09:13.997Z,15.18
2022-10-01T14:13:05.299Z,15.17
2022-10-01T14:16:07.539Z,15.11
2022-10-01T14:19:10.032Z,15.07
2022-10-01T14:22:30.944Z,15.00
2022-10-01T14:25:38.242Z,14.95
2022-10-01T14:29:14.793Z,14.96
2022-10-01T14:32:34.279Z,14.92
2022-10-01T14:35:47.805Z,14.85
2022-10-01T14:38:49.340Z,14.85
2022-10-01T14:41:54.052Z,14.85
2022-10-01T14:44:55.528Z,14.81
2022-10-01T14:48:04.440Z,14.79
2022-10-01T14:51:22.051Z,14.80
2022-10-01T14:54:24.272Z,14.86
2022-10-01T14:57:33.688Z,14.93
2022-10-01T15:00:35.467Z,14.93
2022-10-01T15:03:38.969Z,14.90
2022-10-01T15:06:43.633Z,14.86
2022-10-01T15:09:46.412Z,14.82
2022-10-01T15:12:51.749Z,14.81
2022-10-01T15:15:54.671Z,14.81
2022-10-01T15:19:07.572Z,14.81
2022-10-01T15:22:12.810Z,14.79
2022-10-01T15:25:24.293Z,14.89
2022-10-01T15:28:33.901Z,14.94
2022-10-01T15:31:36.522Z,15.10
2022-10-01T18:11:21.713Z,16.58
2022-10-01T18:14:23.920Z,16.53
2022-10-01T18:17:26.027Z,16.41
2022-10-01T18:20:28.040Z,16.33
2022-10-01T18:23:29.765Z,16.24
2022-10-01T18:26:31.612Z,16.16
2022-10-01T18:29:33.157Z,16.10
2022-10-01T18:32:48.192Z,16.06
2022-10-01T18:35:54.649Z,16.00
2022-10-01T18:39:07.323Z,15.97
2022-10-01T18:42:15.258Z,15.92
2022-10-01T18:45:27.162Z,15.90
2022-10-01T18:48:48.815Z,15.85
2022-10-01T18:52:18.750Z,15.83
2022-10-01T18:55:37.400Z,15.79
2022-10-01T18:59:14.731Z,15.76
2022-10-01T19:02:54.199Z,15.68
2022-10-01T19:06:14.036Z,15.65
2022-10-01T19:09:35.758Z,15.61
2022-10-01T19:12:52.128Z,15.57
2022-10-01T19:16:20.082Z,15.54
2022-10-01T19:19:33.516Z,15.51
2022-10-01T19:23:10.548Z,15.49
2022-10-01T19:26:21.153Z,15.48
2022-10-01T19:29:29.675Z,15.51
2022-10-01T19:32:55.199Z,15.63
2022-10-01T19:35:59.552Z,15.61
2022-10-01T19:39:06.409Z,15.55
2022-10-01T19:42:31.308Z,15.50
2022-10-01T19:45:49.170Z,15.44
2022-10-01T19:48:57.035Z,15.39
2022-10-01T19:52:02.317Z,15.36
2022-10-01T19:55:13.168Z,15.34
2022-10-01T19:58:20.571Z,15.32
2022-10-01T20:01:27.767Z,15.30
2022-10-01T20:05:01.599Z,15.29
2022-10-01T20:08:14.332Z,15.27
2022-10-01T20:11:20.426Z,15.25
2022-10-01T20:15:08.546Z,15.23
2022-10-01T20:18:30.290Z,15.20
2022-10-01T20:21:50.801Z,15.18
2022-10-01T20:25:00.194Z,15.17
2022-10-01T20:28:24.952Z,15.18
2022-10-01T20:31:26.639Z,15.16
2022-10-01T20:34:43.935Z,15.13
2022-10-01T20:37:45.380Z,15.14
2022-10-01T20:40:52.298Z,15.11
2022-10-01T20:43:58.499Z,15.11
2022-10-01T20:47:06.489Z,15.09
2022-10-01T20:50:18.616Z,15.08
2022-10-01T20:53:38.755Z,15.07
2022-10-01T20:56:56.431Z,15.08
2022-10-01T21:00:06.453Z,15.24
2022-10-01T21:03:32.069Z,15.65
2022-10-01T21:06:39.163Z,15.83
2022-10-01T21:09:49.917Z,15.76
2022-10-01T21:13:05.407Z,15.59
2022-10-01T21:16:28.276Z,15.52
2022-10-01T21:19:40.739Z,15.51
2022-10-01T21:23:13.631Z,15.42
2022-10-01T21:26:26.080Z,15.33
2022-10-01T21:29:50.192Z,15.26
2022-10-01T21:33:13.909Z,15.21
2022-10-01T21:36:30.129Z,15.17
2022-10-01T21:39:37.403Z,15.14
2022-10-01T21:42:57.826Z,15.09
2022-10-01T21:46:40.148Z,15.03
2022-10-01T21:50:14.053Z,14.99
2022-10-01T21:53:29.014Z,14.98
2022-10-01T21:56:37.280Z,14.94
2022-10-01T22:00:09.105Z,14.91
2022-10-01T22:03:36.282Z,14.88
2022-10-01T22:06:53.333Z,14.86
2022-10-01T22:10:19.541Z,14.85
2022-10-01T22:13:25.042Z,14.81
2022-10-01T22:16:32.539Z,14.80
2022-10-01T22:19:37.459Z,14.80
2022-10-01T22:22:39.065Z,14.79
2022-10-01T22:25:47.730Z,14.76
2022-10-01T22:28:54.952Z,14.74
2022-10-01T22:32:03.324Z,14.71
2022-10-01T22:35:12.372Z,14.73
2022-10-01T22:38:23.344Z,14.70
2022-10-01T22:41:46.691Z,14.69
2022-10-01T22:44:48.312Z,14.68
2022-10-01T22:48:10.685Z,14.69
2022-10-01T22:51:50.107Z,14.68
2022-10-01T22:55:00.746Z,14.66
2022-10-01T22:58:28.661Z,14.65
2022-10-01T23:01:48.797Z,14.62
2022-10-01T23:04:59.169Z,14.63
2022-10-01T23:08:26.795Z,14.62
2022-10-01T23:11:56.338Z,14.63
2022-10-01T23:15:25.306Z,14.60
2022-10-01T23:18:48.956Z,14.57
2022-10-01T23:22:14.117Z,14.57
2022-10-01T23:25:25.668Z,14.57
2022-10-01T23:28:50.649Z,14.55
2022-10-01T23:32:10.412Z,14.54
2022-10-01T23:35:13.379Z,14.54
2022-10-01T23:38:23.929Z,14.52
2022-10-01T23:41:38.333Z,14.51
2022-10-01T23:44:47.769Z,14.52
2022-10-01T23:48:19.036Z,14.48
2022-10-01T23:51:30.782Z,14.49
2022-10-01T23:54:57.212Z,14.47
2022-10-01T23:58:03.462Z,14.45
